createdAt,value
2022-11-19T00:01:17.959Z,9.10
2022-11-19T00:04:07.603Z,9.20
2022-11-19T00:06:53.494Z,9.20
2022-11-19T00:09:39.407Z,9.30
2022-11-19T00:12:43.607Z,9.10
2022-11-19T00:15:28.949Z,9.00
2022-11-19T00:18:14.354Z,8.90
2022-11-19T00:21:08.705Z,8.90
2022-11-19T00:23:55.360Z,8.80
2022-11-19T00:26:41.038Z,8.70
2022-11-19T00:29:27.157Z,8.80
2022-11-19T00:32:12.799Z,8.80
2022-11-19T00:34:58.297Z,8.80
2022-11-19T00:37:43.836Z,8.90
2022-11-19T00:40:29.284Z,8.90
2022-11-19T00:43:33.476Z,8.90
2022-11-19T00:46:23.085Z,9.00
2022-11-19T00:49:08.624Z,9.00
2022-11-19T00:51:55.365Z,9.00
2022-11-19T00:54:42.201Z,9.00
2022-11-19T00:57:28.320Z,9.00
2022-11-19T01:00:14.570Z,9.10
2022-11-19T01:02:59.971Z,9.10
2022-11-19T01:05:45.748Z,9.10
2022-11-19T01:08:31.993Z,9.10
2022-11-19T01:11:21.071Z,9.10
2022-11-19T01:14:07.377Z,9.10
2022-11-19T01:16:53.521Z,9.10
2022-11-19T01:19:39.218Z,9.10
2022-11-19T01:22:24.771Z,9.10
2022-11-19T01:25:10.233Z,9.10
2022-11-19T01:27:57.367Z,9.10
2022-11-19T01:30:44.246Z,9.00
2022-11-19T01:33:29.975Z,9.10
2022-11-19T01:36:21.831Z,9.10
2022-11-19T01:39:07.645Z,9.10
2022-11-19T01:41:53.156Z,9.10
2022-11-19T01:45:00.455Z,9.10
2022-11-19T01:47:46.385Z,9.10
2022-11-19T01:50:37.842Z,9.20
2022-11-19T01:53:28.173Z,9.20
2022-11-19T01:56:14.625Z,9.10
2022-11-19T01:59:05.311Z,9.10
2022-11-19T02:01:51.116Z,9.20
2022-11-19T02:04:36.730Z,9.20
2022-11-19T02:07:26.258Z,9.10
2022-11-19T02:10:13.606Z,9.10
2022-11-19T02:13:02.426Z,9.10
2022-11-19T02:15:59.516Z,9.20
2022-11-19T02:19:05.069Z,9.20
2022-11-19T02:22:01.004Z,9.20
2022-11-19T02:25:09.809Z,9.10
2022-11-19T02:28:17.518Z,9.20
2022-11-19T02:31:36.684Z,9.20
2022-11-19T02:34:26.793Z,9.20
2022-11-19T02:37:25.318Z,9.20
2022-11-19T02:40:29.510Z,9.20
2022-11-19T02:43:35.035Z,9.20
2022-11-19T02:46:20.985Z,9.20
2022-11-19T02:49:08.840Z,9.20
2022-11-19T02:51:54.630Z,9.20
2022-11-19T02:54:40.693Z,9.20
2022-11-19T02:57:26.060Z,9.20
2022-11-19T03:00:32.818Z,9.20
2022-11-19T03:03:40.381Z,9.20
2022-11-19T03:06:28.461Z,9.10
2022-11-19T03:09:15.333Z,9.10
2022-11-19T03:12:22.697Z,9.10
2022-11-19T03:15:49.942Z,9.10
2022-11-19T03:19:02.637Z,9.10
2022-11-19T03:21:57.688Z,9.20
2022-11-19T03:24:53.262Z,9.10
2022-11-19T03:27:45.388Z,9.10
2022-11-19T03:30:31.808Z,9.10
2022-11-19T03:33:23.298Z,9.10
2022-11-19T03:36:17.057Z,9.10
2022-11-19T03:39:13.037Z,9.10
2022-11-19T03:41:59.167Z,9.10
2022-11-19T03:44:55.169Z,9.10
2022-11-19T03:47:43.962Z,9.10
2022-11-19T03:51:03.763Z,9.10
2022-11-19T03:53:49.773Z,9.20
2022-11-19T03:56:39.143Z,9.20
2022-11-19T03:59:29.433Z,9.20
2022-11-19T04:02:16.614Z,9.20
2022-11-19T04:05:02.078Z,9.10
2022-11-19T04:07:47.783Z,9.10
2022-11-19T04:10:33.345Z,9.10
2022-11-19T04:13:19.007Z,9.10
2022-11-19T04:16:04.561Z,9.10
2022-11-19T04:18:49.891Z,9.00
2022-11-19T04:21:35.314Z,9.00
2022-11-19T04:24:21.027Z,9.10
2022-11-19T04:27:06.472Z,9.10
2022-11-19T04:29:52.063Z,9.00
2022-11-19T04:32:37.731Z,9.00
2022-11-19T04:35:23.238Z,9.00
2022-11-19T04:38:08.739Z,9.00
2022-11-19T04:40:54.388Z,8.90
2022-11-19T04:43:39.892Z,9.00
2022-11-19T04:46:25.436Z,9.00
2022-11-19T04:49:10.847Z,8.90
2022-11-19T04:51:56.303Z,9.00
2022-11-19T04:54:41.840Z,9.00
2022-11-19T04:57:27.311Z,9.00
2022-11-19T05:00:13.583Z,9.00
2022-11-19T05:02:59.179Z,9.10
2022-11-19T05:05:44.655Z,9.10
2022-11-19T05:08:30.412Z,9.10
2022-11-19T05:11:15.879Z,9.10
2022-11-19T05:14:01.575Z,9.10
2022-11-19T05:16:47.221Z,9.10
2022-11-19T05:19:32.714Z,9.10
2022-11-19T05:22:18.205Z,9.10
2022-11-19T05:25:06.242Z,9.10
2022-11-19T05:27:51.987Z,9.10
2022-11-19T05:30:37.472Z,9.10
2022-11-19T05:33:22.885Z,9.10
2022-11-19T05:36:08.744Z,9.10
2022-11-19T05:38:54.928Z,9.10
2022-11-19T05:41:40.417Z,9.10
2022-11-19T05:44:26.037Z,9.10
2022-11-19T05:47:11.581Z,9.10
2022-11-19T05:49:57.120Z,9.10
2022-11-19T05:52:43.567Z,9.10
2022-11-19T05:55:29.295Z,9.00
2022-11-19T05:58:15.010Z,9.00
2022-11-19T06:01:00.878Z,8.90
2022-11-19T06:03:46.409Z,8.90
2022-11-19T06:06:32.115Z,8.80
2022-11-19T06:09:18.050Z,8.80
2022-11-19T06:12:04.159Z,8.80
2022-11-19T06:14:49.929Z,8.80
2022-11-19T06:17:35.536Z,8.80
2022-11-19T06:20:21.708Z,8.70
2022-11-19T06:23:07.153Z,8.80
2022-11-19T06:25:54.627Z,8.80
2022-11-19T06:28:40.274Z,8.80
2022-11-19T06:31:26.060Z,8.80
2022-11-19T06:34:12.026Z,8.80
2022-11-19T06:36:58.748Z,8.80
2022-11-19T06:39:43.956Z,8.90
2022-11-19T06:42:36.367Z,8.90
2022-11-19T06:45:22.412Z,8.90
2022-11-19T06:48:08.239Z,8.80
2022-11-19T06:50:53.932Z,8.70
2022-11-19T06:53:39.706Z,8.70
2022-11-19T06:56:25.091Z,8.70
2022-11-19T06:59:10.708Z,8.70
2022-11-19T07:01:56.494Z,8.70
2022-11-19T07:04:42.056Z,8.70
2022-11-19T07:07:27.784Z,8.80
2022-11-19T07:10:13.176Z,8.70
2022-11-19T07:12:58.894Z,8.80
2022-11-19T07:15:44.450Z,8.80
2022-11-19T07:18:30.796Z,8.90
2022-11-19T07:21:16.591Z,8.90
2022-11-19T07:24:04.754Z,8.90
2022-11-19T07:26:50.186Z,9.00
2022-11-19T07:29:36.280Z,9.00
2022-11-19T07:32:21.689Z,9.00
2022-11-19T07:35:07.715Z,9.10
2022-11-19T07:37:53.157Z,9.10
2022-11-19T07:40:38.719Z,9.10
2022-11-19T07:43:24.473Z,9.10
2022-11-19T07:46:10.192Z,9.10
2022-11-19T07:48:57.079Z,9.10
2022-11-19T07:51:42.688Z,9.10
2022-11-19T07:54:28.450Z,9.20
2022-11-19T07:57:14.152Z,9.20
2022-11-19T07:59:59.889Z,9.20
2022-11-19T08:02:45.608Z,9.20
2022-11-19T08:05:31.235Z,9.30
2022-11-19T08:08:16.895Z,9.30
2022-11-19T08:11:07.669Z,9.30
2022-11-19T08:13:53.750Z,9.30
2022-11-19T08:16:58.264Z,9.30
2022-11-19T08:19:44.029Z,9.40
2022-11-19T08:22:29.900Z,9.40
2022-11-19T08:25:15.468Z,9.40
2022-11-19T08:28:01.947Z,9.40
2022-11-19T08:30:47.734Z,9.40
2022-11-19T08:33:34.179Z,9.40
2022-11-19T08:36:19.968Z,9.50
2022-11-19T08:39:06.671Z,9.50
2022-11-19T08:42:10.633Z,9.60
2022-11-19T08:44:56.219Z,9.60
2022-11-19T08:47:41.773Z,9.70
2022-11-19T08:50:29.102Z,9.70
2022-11-19T08:53:14.573Z,9.80
2022-11-19T08:56:00.103Z,9.80
2022-11-19T08:58:46.121Z,9.90
2022-11-19T09:01:31.394Z,9.80
2022-11-19T09:04:17.525Z,9.80
2022-11-19T09:07:03.459Z,9.80
2022-11-19T09:09:49.176Z,9.80
2022-11-19T09:12:34.781Z,9.80
2022-11-19T09:15:21.309Z,9.90
2022-11-19T09:18:06.558Z,9.90
2022-11-19T09:20:56.397Z,9.80
2022-11-19T09:23:42.638Z,9.70
2022-11-19T09:26:28.452Z,9.70
2022-11-19T09:29:14.413Z,9.80
2022-11-19T09:32:00.308Z,9.70
2022-11-19T09:34:45.831Z,9.80
2022-11-19T09:37:33.971Z,9.90
2022-11-19T09:40:21.650Z,10.00
2022-11-19T09:43:17.040Z,10.10
2022-11-19T09:46:40.006Z,10.20
2022-11-19T09:49:38.127Z,10.30
2022-11-19T09:52:25.741Z,10.30
2022-11-19T09:55:19.588Z,10.30
2022-11-19T09:58:14.450Z,10.40
2022-11-19T10:01:00.631Z,10.50
2022-11-19T10:03:51.824Z,10.50
2022-11-19T10:07:03.998Z,10.60
2022-11-19T10:10:12.258Z,10.60
2022-11-19T10:13:25.951Z,10.60
2022-11-19T10:16:17.219Z,10.60
2022-11-19T10:19:18.159Z,10.50
2022-11-19T10:22:06.388Z,10.50
2022-11-19T10:25:05.492Z,10.50
2022-11-19T10:28:00.430Z,10.60
2022-11-19T10:30:52.081Z,10.60
2022-11-19T10:33:52.425Z,10.60
2022-11-19T10:37:21.553Z,10.60
2022-11-19T10:40:17.160Z,10.60
2022-11-19T10:43:26.382Z,10.60
2022-11-19T10:46:18.742Z,10.60
2022-11-19T10:49:04.454Z,10.70
2022-11-19T10:51:49.769Z,10.70
2022-11-19T10:54:36.886Z,10.70
2022-11-19T10:57:23.874Z,10.70
2022-11-19T11:00:10.742Z,10.80
2022-11-19T11:03:04.676Z,11.00
2022-11-19T11:06:05.150Z,11.20
2022-11-19T11:08:54.416Z,11.40
2022-11-19T11:11:57.913Z,11.60
2022-11-19T11:14:53.394Z,11.70
2022-11-19T11:17:39.695Z,11.70
2022-11-19T11:20:28.362Z,11.60
2022-11-19T11:23:20.903Z,11.60
2022-11-19T11:26:11.720Z,11.60
2022-11-19T11:29:03.534Z,11.90
2022-11-19T11:31:48.894Z,12.20
2022-11-19T11:34:43.747Z,12.50
2022-11-19T11:37:30.226Z,12.50
2022-11-19T11:40:22.096Z,12.30
2022-11-19T11:43:17.739Z,12.20
2022-11-19T11:46:06.766Z,12.20
2022-11-19T11:48:52.963Z,12.50
2022-11-19T11:51:39.879Z,12.50
2022-11-19T11:54:25.077Z,13.10
2022-11-19T11:57:18.436Z,13.50
2022-11-19T12:00:26.951Z,13.50
2022-11-19T12:03:20.818Z,16.20
2022-11-19T12:06:15.333Z,16.10
2022-11-19T12:09:10.682Z,15.00
2022-11-19T12:12:00.280Z,14.10
2022-11-19T12:14:54.619Z,13.50
2022-11-19T12:17:43.047Z,13.10
2022-11-19T12:20:56.096Z,12.80
2022-11-19T12:23:44.802Z,12.40
2022-11-19T12:26:39.102Z,12.10
2022-11-19T12:29:52.231Z,11.90
2022-11-19T12:32:59.183Z,11.80
2022-11-19T12:36:10.702Z,11.70
2022-11-19T12:39:04.737Z,11.60
2022-11-19T12:42:18.420Z,11.60
2022-11-19T12:45:30.565Z,11.80
2022-11-19T12:48:37.413Z,12.30
2022-11-19T12:51:35.253Z,12.70
2022-11-19T12:54:50.200Z,13.00
2022-11-19T12:57:55.078Z,13.20
2022-11-19T13:01:02.133Z,13.10
2022-11-19T13:04:03.076Z,12.80
2022-11-19T13:07:00.359Z,12.50
2022-11-19T13:09:48.429Z,12.40
2022-11-19T13:12:42.600Z,12.40
2022-11-19T13:15:34.297Z,12.40
2022-11-19T13:18:22.420Z,12.40
2022-11-19T13:21:14.117Z,12.40
2022-11-19T13:24:25.764Z,12.50
2022-11-19T13:27:20.191Z,12.40
2022-11-19T13:30:23.329Z,12.30
2022-11-19T13:33:20.163Z,12.30
2022-11-19T13:36:29.445Z,12.20
2022-11-19T13:39:22.373Z,12.20
2022-11-19T13:42:28.369Z,12.20
2022-11-19T13:45:15.720Z,12.10
2022-11-19T13:48:22.824Z,12.10
2022-11-19T13:51:25.833Z,12.00
2022-11-19T13:54:22.803Z,11.70
2022-11-19T13:57:22.592Z,11.70
2022-11-19T14:00:25.534Z,11.60
2022-11-19T14:03:29.111Z,11.60
2022-11-19T14:06:51.845Z,11.60
2022-11-19T14:10:02.473Z,11.60
2022-11-19T14:13:09.057Z,11.70
2022-11-19T14:16:41.505Z,11.80
2022-11-19T14:19:45.672Z,11.90
2022-11-19T14:22:59.060Z,11.90
2022-11-19T14:26:09.241Z,11.90
2022-11-19T14:28:54.688Z,11.90
2022-11-19T14:32:07.875Z,11.70
2022-11-19T14:35:02.240Z,11.50
2022-11-19T14:37:51.880Z,11.40
2022-11-19T14:40:43.562Z,11.30
2022-11-19T14:43:49.048Z,11.20
2022-11-19T14:46:39.469Z,11.10
2022-11-19T14:49:35.909Z,10.90
2022-11-19T14:52:49.372Z,10.80
2022-11-19T14:55:35.357Z,10.80
2022-11-19T14:58:24.208Z,10.80
2022-11-19T15:01:20.654Z,10.70
2022-11-19T15:04:10.648Z,10.70
2022-11-19T15:06:57.245Z,10.60
2022-11-19T15:10:02.424Z,10.40
2022-11-19T15:13:01.766Z,10.40
2022-11-19T15:15:50.805Z,10.40
2022-11-19T15:18:45.458Z,10.30
2022-11-19T15:21:31.220Z,10.20
2022-11-19T15:24:43.108Z,10.20
2022-11-19T15:27:42.057Z,10.20
2022-11-19T15:30:31.686Z,10.10
2022-11-19T15:33:39.272Z,10.10
2022-11-19T15:36:32.585Z,10.00
2022-11-19T15:39:32.205Z,9.70
2022-11-19T15:42:25.374Z,9.70
2022-11-19T15:45:24.605Z,9.70
2022-11-19T15:48:16.032Z,9.60
2022-11-19T15:51:03.231Z,9.50
2022-11-19T15:54:07.647Z,9.60
2022-11-19T15:56:57.753Z,9.60
2022-11-19T15:59:48.643Z,9.60
2022-11-19T16:02:38.394Z,9.60
2022-11-19T16:05:27.123Z,9.50
2022-11-19T16:08:14.784Z,9.50
2022-11-19T16:11:21.050Z,9.50
2022-11-19T16:14:44.498Z,9.50
2022-11-19T16:17:43.791Z,9.40
2022-11-19T16:20:32.512Z,9.40
2022-11-19T16:23:28.796Z,9.30
2022-11-19T16:26:14.543Z,9.20
2022-11-19T16:29:01.908Z,9.10
2022-11-19T16:31:56.789Z,9.10
2022-11-19T16:34:42.714Z,8.90
2022-11-19T16:37:29.187Z,8.80
2022-11-19T16:40:15.920Z,8.70
2022-11-19T16:43:01.765Z,8.70
2022-11-19T16:45:47.598Z,8.70
2022-11-19T16:48:48.211Z,8.60
2022-11-19T16:51:40.222Z,8.60
2022-11-19T16:54:49.185Z,8.50
2022-11-19T16:57:35.509Z,8.50
2022-11-19T17:00:24.991Z,8.50
2022-11-19T17:03:27.548Z,8.40
2022-11-19T17:06:25.658Z,8.30
2022-11-19T17:09:31.439Z,8.30
2022-11-19T17:12:29.091Z,8.30
2022-11-19T17:15:34.637Z,8.30
2022-11-19T17:18:33.254Z,8.30
2022-11-19T17:21:30.042Z,8.20
2022-11-19T17:24:22.496Z,8.20
2022-11-19T17:27:30.500Z,8.30
2022-11-19T17:30:30.913Z,8.30
2022-11-19T17:33:18.423Z,8.30
2022-11-19T17:36:04.393Z,8.40
2022-11-19T17:38:49.986Z,8.30
2022-11-19T17:41:54.331Z,8.30
2022-11-19T17:44:40.648Z,8.30
2022-11-19T17:47:26.250Z,8.30
2022-11-19T17:50:12.077Z,8.30
2022-11-19T17:52:57.681Z,8.40
2022-11-19T17:55:44.077Z,8.40
2022-11-19T17:58:29.964Z,8.40
2022-11-19T18:01:16.752Z,8.40
2022-11-19T18:04:02.265Z,8.50
2022-11-19T18:06:49.487Z,8.50
2022-11-19T18:09:35.252Z,8.50
2022-11-19T18:12:20.933Z,8.50
2022-11-19T18:15:06.883Z,8.40
2022-11-19T18:17:52.389Z,8.40
2022-11-19T18:20:38.306Z,8.40
2022-11-19T18:23:23.735Z,8.40
2022-11-19T18:26:22.304Z,8.40
2022-11-19T18:29:07.944Z,8.40
2022-11-19T18:31:53.652Z,8.40
2022-11-19T18:34:39.274Z,8.40
2022-11-19T18:37:24.699Z,8.40
2022-11-19T18:40:11.330Z,8.10
2022-11-19T18:43:15.819Z,8.40
2022-11-19T18:46:01.246Z,8.40
2022-11-19T18:48:47.200Z,8.40
2022-11-19T18:51:34.269Z,8.40
2022-11-19T18:54:20.454Z,8.40
2022-11-19T18:57:05.952Z,8.40
2022-11-19T18:59:51.567Z,8.40
2022-11-19T19:02:37.379Z,8.50
2022-11-19T19:05:23.329Z,8.40
2022-11-19T19:08:09.129Z,8.30
2022-11-19T19:11:14.769Z,8.30
2022-11-19T19:14:00.601Z,8.40
2022-11-19T19:16:46.691Z,8.30
2022-11-19T19:19:32.463Z,8.40
2022-11-19T19:22:18.518Z,8.40
2022-11-19T19:25:05.197Z,8.40
2022-11-19T19:27:50.661Z,8.40
2022-11-19T19:30:36.500Z,8.40
2022-11-19T19:33:22.604Z,8.40
2022-11-19T19:36:08.120Z,8.40
2022-11-19T19:38:54.132Z,8.40
2022-11-19T19:41:39.979Z,8.40
2022-11-19T19:44:25.666Z,8.40
2022-11-19T19:47:11.196Z,8.40
2022-11-19T19:49:57.888Z,8.50
2022-11-19T19:52:43.393Z,8.50
2022-11-19T19:55:28.923Z,8.50
2022-11-19T19:58:14.619Z,8.50
2022-11-19T20:01:08.109Z,8.50
2022-11-19T20:03:55.092Z,8.50
2022-11-19T20:06:45.646Z,8.40
2022-11-19T20:09:31.164Z,8.50
2022-11-19T20:12:17.474Z,8.50
2022-11-19T20:15:03.234Z,8.50
2022-11-19T20:17:49.307Z,8.60
2022-11-19T20:20:34.689Z,8.60
2022-11-19T20:23:20.263Z,8.60
2022-11-19T20:26:09.371Z,8.60
2022-11-19T20:28:57.693Z,8.60
2022-11-19T20:31:50.121Z,8.50
2022-11-19T20:34:35.948Z,8.50
2022-11-19T20:37:23.111Z,8.60
2022-11-19T20:40:09.682Z,8.60
2022-11-19T20:43:13.498Z,8.60
2022-11-19T20:46:07.113Z,8.60
2022-11-19T20:48:53.823Z,8.70
2022-11-19T20:51:40.287Z,8.70
2022-11-19T20:54:26.529Z,8.70
2022-11-19T20:57:12.355Z,8.70
2022-11-19T20:59:58.239Z,8.70
2022-11-19T21:02:43.718Z,8.70
2022-11-19T21:05:29.369Z,8.70
2022-11-19T21:08:16.297Z,8.70
2022-11-19T21:11:12.559Z,8.60
2022-11-19T21:13:58.020Z,8.60
2022-11-19T21:16:43.664Z,8.60
2022-11-19T21:19:29.112Z,8.60
2022-11-19T21:22:14.754Z,8.60
2022-11-19T21:25:00.139Z,8.60
2022-11-19T21:27:45.620Z,8.60
2022-11-19T21:30:31.259Z,8.60
2022-11-19T21:33:16.975Z,8.60
2022-11-19T21:36:04.102Z,8.60
2022-11-19T21:38:50.549Z,8.60
2022-11-19T21:41:36.336Z,8.50
2022-11-19T21:44:22.296Z,8.60
2022-11-19T21:47:08.071Z,8.50
2022-11-19T21:49:59.350Z,8.50
2022-11-19T21:52:44.993Z,8.50
2022-11-19T21:55:31.650Z,8.60
2022-11-19T21:58:17.090Z,8.60
2022-11-19T22:01:04.438Z,8.60
2022-11-19T22:03:50.336Z,8.60
2022-11-19T22:06:35.957Z,8.60
2022-11-19T22:09:21.774Z,8.50
2022-11-19T22:12:07.605Z,8.50
2022-11-19T22:14:53.177Z,8.50
2022-11-19T22:17:41.551Z,8.50
2022-11-19T22:20:28.536Z,8.50
2022-11-19T22:23:13.970Z,8.40
2022-11-19T22:26:05.053Z,8.50
2022-11-19T22:28:51.627Z,8.40
2022-11-19T22:31:37.036Z,8.40
2022-11-19T22:34:22.679Z,8.40
2022-11-19T22:37:08.590Z,8.50
2022-11-19T22:39:53.752Z,8.50
2022-11-19T22:42:39.626Z,8.50
2022-11-19T22:45:25.455Z,8.60
2022-11-19T22:48:11.442Z,8.50
2022-11-19T22:50:57.791Z,8.50
2022-11-19T22:53:43.818Z,8.50
2022-11-19T22:56:30.621Z,8.50
2022-11-19T22:59:16.686Z,8.50
2022-11-19T23:02:02.148Z,8.50
2022-11-19T23:04:47.716Z,8.50
2022-11-19T23:07:33.526Z,8.50
2022-11-19T23:10:19.003Z,8.50
2022-11-19T23:13:23.180Z,8.50
2022-11-19T23:16:13.364Z,8.50
2022-11-19T23:18:58.699Z,8.50
2022-11-19T23:21:45.859Z,8.60
2022-11-19T23:24:32.228Z,8.50
2022-11-19T23:27:21.983Z,8.50
2022-11-19T23:30:08.052Z,8.40
2022-11-19T23:32:54.251Z,8.40
2022-11-19T23:35:39.717Z,8.40
2022-11-19T23:38:25.892Z,8.40
2022-11-19T23:41:14.377Z,8.40
2022-11-19T23:44:00.199Z,8.40
2022-11-19T23:46:45.462Z,8.40
2022-11-19T23:49:30.894Z,8.40
2022-11-19T23:52:16.444Z,8.40
2022-11-19T23:55:02.785Z,8.40
2022-11-19T23:57:48.242Z,8.40
